createdAt,value
2022-11-12T00:01:59.343Z,18.60
2022-11-12T00:04:44.835Z,18.60
2022-11-12T00:07:30.412Z,18.60
2022-11-12T00:10:16.148Z,18.60
2022-11-12T00:13:02.110Z,18.50
2022-11-12T00:15:47.701Z,18.50
2022-11-12T00:18:33.168Z,18.50
2022-11-12T00:21:18.732Z,18.50
2022-11-12T00:24:04.258Z,18.50
2022-11-12T00:26:49.701Z,18.50
2022-11-12T00:29:35.192Z,18.50
2022-11-12T00:32:20.873Z,18.50
2022-11-12T00:35:12.536Z,18.50
2022-11-12T00:38:00.482Z,18.40
2022-11-12T00:40:46.467Z,18.50
2022-11-12T00:43:31.961Z,18.40
2022-11-12T00:46:17.865Z,18.50
2022-11-12T00:49:03.379Z,18.40
2022-11-12T00:51:49.494Z,18.40
2022-11-12T00:54:35.318Z,18.40
2022-11-12T00:57:20.738Z,18.40
2022-11-12T01:00:07.349Z,18.40
2022-11-12T01:02:52.764Z,18.40
2022-11-12T01:05:38.442Z,18.40
2022-11-12T01:08:24.894Z,18.40
2022-11-12T01:11:12.211Z,18.40
2022-11-12T01:14:02.271Z,18.40
2022-11-12T01:16:48.038Z,18.30
2022-11-12T01:19:33.760Z,18.30
2022-11-12T01:22:19.239Z,18.40
2022-11-12T01:25:05.765Z,18.30
2022-11-12T01:27:53.451Z,18.30
2022-11-12T01:30:39.210Z,18.30
2022-11-12T01:33:24.933Z,18.30
2022-11-12T01:36:10.832Z,18.30
2022-11-12T01:38:56.423Z,18.30
2022-11-12T01:41:42.055Z,18.30
2022-11-12T01:44:30.505Z,18.30
2022-11-12T01:47:27.096Z,18.30
2022-11-12T01:50:20.460Z,18.30
2022-11-12T01:53:08.433Z,18.30
2022-11-12T01:55:54.634Z,18.30
2022-11-12T01:58:40.855Z,18.20
2022-11-12T02:01:26.640Z,18.20
2022-11-12T02:04:12.876Z,18.20
2022-11-12T02:06:59.521Z,18.20
2022-11-12T02:09:45.168Z,18.20
2022-11-12T02:12:49.229Z,18.20
2022-11-12T02:15:35.217Z,18.20
2022-11-12T02:18:20.573Z,18.20
2022-11-12T02:21:08.806Z,18.20
2022-11-12T02:24:05.440Z,18.20
2022-11-12T02:26:52.569Z,18.20
2022-11-12T02:29:46.089Z,18.10
2022-11-12T02:32:31.583Z,18.10
2022-11-12T02:35:17.109Z,18.10
2022-11-12T02:38:02.804Z,18.10
2022-11-12T02:40:48.601Z,18.10
2022-11-12T02:43:34.677Z,18.10
2022-11-12T02:46:20.260Z,18.10
2022-11-12T02:49:05.844Z,18.10
2022-11-12T02:51:51.432Z,18.10
2022-11-12T02:54:37.080Z,18.10
2022-11-12T02:57:22.460Z,18.10
2022-11-12T03:00:10.630Z,18.10
2022-11-12T03:02:59.332Z,18.10
2022-11-12T03:05:45.852Z,18.10
2022-11-12T03:08:31.710Z,18.10
2022-11-12T03:11:17.267Z,18.10
2022-11-12T03:14:02.988Z,18.00
2022-11-12T03:16:48.768Z,18.00
2022-11-12T03:19:34.156Z,18.00
2022-11-12T03:22:19.797Z,18.00
2022-11-12T03:25:05.780Z,18.00
2022-11-12T03:27:58.888Z,18.00
2022-11-12T03:30:44.984Z,18.00
2022-11-12T03:33:30.731Z,18.00
2022-11-12T03:36:16.192Z,18.00
2022-11-12T03:39:01.684Z,18.00
2022-11-12T03:41:47.248Z,18.00
2022-11-12T03:44:33.649Z,18.00
2022-11-12T03:47:19.340Z,18.00
2022-11-12T03:50:06.560Z,18.00
2022-11-12T03:52:53.312Z,18.00
2022-11-12T03:55:39.062Z,18.00
2022-11-12T03:58:25.112Z,18.00
2022-11-12T04:01:11.183Z,17.90
2022-11-12T04:03:56.933Z,17.90
2022-11-12T04:07:01.318Z,17.90
2022-11-12T04:09:46.831Z,17.90
2022-11-12T04:12:51.057Z,17.90
2022-11-12T04:15:36.728Z,17.90
2022-11-12T04:18:40.843Z,17.90
2022-11-12T04:21:48.696Z,17.90
2022-11-12T04:24:54.296Z,17.90
2022-11-12T04:27:42.463Z,17.90
2022-11-12T04:30:28.532Z,17.90
2022-11-12T04:33:14.109Z,17.90
2022-11-12T04:35:59.491Z,17.90
2022-11-12T04:38:45.037Z,17.90
2022-11-12T04:41:49.353Z,17.90
2022-11-12T04:44:53.672Z,17.90
2022-11-12T04:47:40.844Z,17.90
2022-11-12T04:50:26.112Z,17.90
2022-11-12T04:53:11.653Z,17.90
2022-11-12T04:55:57.817Z,17.90
2022-11-12T04:58:43.494Z,18.00
2022-11-12T05:01:29.218Z,18.10
2022-11-12T05:04:14.756Z,18.30
2022-11-12T05:07:00.426Z,18.30
2022-11-12T05:09:46.267Z,18.40
2022-11-12T05:12:31.678Z,18.50
2022-11-12T05:15:17.389Z,18.50
2022-11-12T05:18:03.255Z,18.60
2022-11-12T05:20:51.273Z,18.70
2022-11-12T05:23:36.789Z,18.80
2022-11-12T05:26:22.319Z,18.80
2022-11-12T05:29:09.064Z,18.90
2022-11-12T05:31:55.299Z,18.90
2022-11-12T05:34:41.220Z,18.90
2022-11-12T05:37:27.040Z,18.90
2022-11-12T05:40:12.800Z,18.90
2022-11-12T05:42:58.506Z,18.90
2022-11-12T05:45:44.625Z,18.90
2022-11-12T05:48:31.040Z,18.90
2022-11-12T05:51:17.145Z,18.80
2022-11-12T05:54:03.132Z,18.80
2022-11-12T05:56:48.886Z,18.80
2022-11-12T05:59:34.561Z,18.70
2022-11-12T06:02:20.073Z,18.70
2022-11-12T06:05:06.148Z,18.70
2022-11-12T06:07:52.031Z,18.60
2022-11-12T06:10:37.329Z,18.60
2022-11-12T06:13:23.972Z,18.80
2022-11-12T06:16:09.808Z,19.00
2022-11-12T06:18:55.380Z,19.20
2022-11-12T06:21:40.920Z,19.50
2022-11-12T06:24:32.131Z,19.70
2022-11-12T06:27:20.477Z,19.80
2022-11-12T06:30:07.861Z,19.90
2022-11-12T06:32:53.316Z,20.00
2022-11-12T06:35:42.790Z,20.00
2022-11-12T06:38:31.357Z,20.00
2022-11-12T06:41:16.928Z,20.00
2022-11-12T06:44:03.844Z,20.00
2022-11-12T06:46:49.324Z,20.00
2022-11-12T06:49:34.922Z,20.00
2022-11-12T06:52:20.502Z,20.00
2022-11-12T06:55:06.183Z,20.00
2022-11-12T06:57:52.890Z,20.00
2022-11-12T07:00:38.573Z,20.00
2022-11-12T07:03:24.299Z,20.00
2022-11-12T07:06:11.800Z,20.00
2022-11-12T07:08:57.722Z,20.00
2022-11-12T07:11:43.774Z,20.00
2022-11-12T07:14:29.337Z,20.00
2022-11-12T07:17:14.814Z,20.00
2022-11-12T07:20:03.862Z,19.90
2022-11-12T07:22:49.984Z,19.90
2022-11-12T07:25:35.407Z,19.90
2022-11-12T07:28:21.347Z,19.90
2022-11-12T07:31:08.155Z,19.80
2022-11-12T07:33:54.036Z,19.80
2022-11-12T07:36:39.721Z,19.80
2022-11-12T07:39:25.207Z,19.80
2022-11-12T07:42:10.795Z,19.90
2022-11-12T07:44:56.366Z,19.90
2022-11-12T07:47:41.792Z,20.00
2022-11-12T07:50:27.612Z,19.90
2022-11-12T07:53:13.588Z,19.90
2022-11-12T07:56:00.157Z,19.90
2022-11-12T07:58:46.195Z,19.90
2022-11-12T08:01:36.139Z,19.90
2022-11-12T08:04:21.793Z,20.00
2022-11-12T08:07:07.776Z,19.90
2022-11-12T08:09:54.308Z,19.90
2022-11-12T08:12:40.084Z,19.90
2022-11-12T08:15:25.805Z,19.90
2022-11-12T08:18:11.245Z,19.80
2022-11-12T08:21:00.761Z,19.80
2022-11-12T08:23:46.753Z,19.70
2022-11-12T08:26:32.393Z,19.70
2022-11-12T08:29:18.373Z,19.70
2022-11-12T08:32:04.046Z,19.70
2022-11-12T08:34:52.662Z,19.60
2022-11-12T08:37:39.101Z,19.60
2022-11-12T08:40:31.118Z,19.40
2022-11-12T08:43:26.840Z,19.30
2022-11-12T08:49:33.640Z,19.30
2022-11-12T08:52:28.531Z,19.30
2022-11-12T08:55:32.061Z,19.30
2022-11-12T08:58:24.891Z,19.30
2022-11-12T09:01:21.921Z,19.30
2022-11-12T09:04:30.270Z,19.40
2022-11-12T09:10:53.701Z,19.50
2022-11-12T09:13:53.731Z,19.70
2022-11-12T09:20:06.075Z,19.90
2022-11-12T09:26:28.217Z,20.20
2022-11-12T09:29:30.079Z,20.30
2022-11-12T09:32:30.861Z,20.40
2022-11-12T09:38:40.357Z,20.40
2022-11-12T09:42:02.384Z,20.30
2022-11-12T09:53:24.344Z,20.30
2022-11-12T10:03:18.046Z,20.10
2022-11-12T10:09:37.008Z,20.10
2022-11-12T10:12:36.847Z,20.10
2022-11-12T10:26:16.321Z,20.00
2022-11-12T10:29:11.378Z,19.90
2022-11-12T10:31:57.102Z,19.90
2022-11-12T10:34:43.234Z,19.80
2022-11-12T10:37:42.450Z,19.80
2022-11-12T10:40:28.361Z,19.80
2022-11-12T10:43:17.203Z,19.70
2022-11-12T10:46:14.203Z,19.70
2022-11-12T10:49:04.454Z,19.70
2022-11-12T10:51:57.729Z,19.60
2022-11-12T10:54:43.713Z,19.60
2022-11-12T10:57:29.631Z,19.60
2022-11-12T11:00:19.014Z,19.60
2022-11-12T11:03:17.049Z,19.60
2022-11-12T11:06:07.619Z,19.50
2022-11-12T11:09:16.700Z,19.50
2022-11-12T11:12:02.443Z,19.50
2022-11-12T11:15:04.143Z,19.50
2022-11-12T11:17:49.850Z,19.40
2022-11-12T11:20:44.291Z,19.40
2022-11-12T11:23:41.484Z,19.40
2022-11-12T11:26:36.943Z,19.40
2022-11-12T11:29:37.816Z,19.40
2022-11-12T11:32:33.243Z,19.40
2022-11-12T11:35:44.845Z,19.40
2022-11-12T11:38:40.020Z,19.40
2022-11-12T11:41:30.389Z,19.50
2022-11-12T11:44:19.312Z,19.50
2022-11-12T11:47:17.972Z,19.60
2022-11-12T11:50:03.466Z,19.60
2022-11-12T11:53:01.952Z,19.60
2022-11-12T11:55:56.125Z,19.70
2022-11-12T11:58:49.489Z,19.70
2022-11-12T12:01:47.842Z,19.80
2022-11-12T12:04:42.731Z,19.80
2022-11-12T12:07:35.280Z,19.80
2022-11-12T12:11:01.786Z,19.80
2022-11-12T12:13:52.945Z,19.80
2022-11-12T12:16:46.165Z,19.80
2022-11-12T12:19:38.195Z,19.70
2022-11-12T12:22:35.428Z,19.70
2022-11-12T12:25:20.842Z,19.70
2022-11-12T12:28:13.643Z,19.70
2022-11-12T12:31:02.912Z,19.60
2022-11-12T12:33:54.040Z,19.60
2022-11-12T12:36:40.992Z,19.60
2022-11-12T12:39:31.497Z,19.60
2022-11-12T12:42:22.787Z,19.60
2022-11-12T12:45:21.759Z,19.50
2022-11-12T12:48:12.255Z,19.50
2022-11-12T12:50:57.820Z,19.50
2022-11-12T12:53:44.038Z,19.50
2022-11-12T12:56:32.910Z,19.40
2022-11-12T12:59:24.662Z,19.40
2022-11-12T13:02:20.404Z,19.40
2022-11-12T13:05:06.375Z,19.40
2022-11-12T13:07:52.363Z,19.50
2022-11-12T13:10:44.532Z,19.50
2022-11-12T13:13:34.501Z,19.60
2022-11-12T13:16:40.417Z,19.60
2022-11-12T13:19:29.412Z,19.60
2022-11-12T13:22:18.134Z,19.60
2022-11-12T13:25:15.798Z,19.70
2022-11-12T13:28:11.193Z,19.70
2022-11-12T13:30:57.412Z,19.70
2022-11-12T13:33:43.120Z,19.70
2022-11-12T13:36:29.361Z,19.70
2022-11-12T13:39:16.558Z,19.70
2022-11-12T13:42:35.433Z,19.60
2022-11-12T13:45:26.031Z,19.60
2022-11-12T13:48:23.748Z,19.60
2022-11-12T13:51:15.709Z,19.60
2022-11-12T13:54:01.858Z,19.60
2022-11-12T13:56:47.543Z,19.50
2022-11-12T13:59:33.126Z,19.50
2022-11-12T14:02:26.056Z,19.50
2022-11-12T14:05:23.415Z,19.50
2022-11-12T14:08:33.909Z,19.40
2022-11-12T14:11:28.814Z,19.40
2022-11-12T14:14:22.380Z,19.40
2022-11-12T14:17:27.113Z,19.40
2022-11-12T14:20:21.178Z,19.40
2022-11-12T14:23:36.251Z,19.30
2022-11-12T14:26:34.007Z,19.30
2022-11-12T14:29:19.789Z,19.20
2022-11-12T14:32:08.891Z,19.30
2022-11-12T14:34:54.693Z,19.30
2022-11-12T14:37:43.935Z,19.30
2022-11-12T14:40:31.661Z,19.30
2022-11-12T14:43:35.284Z,19.30
2022-11-12T14:46:36.213Z,19.20
2022-11-12T14:49:44.728Z,19.30
2022-11-12T14:52:32.541Z,19.30
2022-11-12T14:55:24.530Z,19.30
2022-11-12T14:58:14.750Z,19.40
2022-11-12T15:01:44.999Z,19.50
2022-11-12T15:04:25.761Z,19.60
2022-11-12T15:07:25.037Z,19.80
2022-11-12T15:10:29.614Z,19.90
2022-11-12T15:13:19.634Z,19.90
2022-11-12T15:16:07.405Z,19.90
2022-11-12T15:19:15.884Z,19.90
2022-11-12T15:22:02.763Z,19.90
2022-11-12T15:24:49.543Z,19.90
2022-11-12T15:27:40.017Z,19.90
2022-11-12T15:30:27.211Z,19.90
2022-11-12T15:33:13.152Z,19.90
2022-11-12T15:36:00.318Z,19.80
2022-11-12T15:38:50.604Z,19.80
2022-11-12T15:41:36.082Z,19.80
2022-11-12T15:44:21.544Z,19.80
2022-11-12T15:47:08.600Z,19.80
2022-11-12T15:49:56.009Z,19.80
2022-11-12T15:52:41.783Z,19.80
2022-11-12T15:55:27.531Z,19.80
2022-11-12T15:58:16.136Z,19.80
2022-11-12T16:01:01.760Z,19.80
2022-11-12T16:03:47.912Z,19.70
2022-11-12T16:06:33.282Z,19.70
2022-11-12T16:09:18.921Z,19.70
2022-11-12T16:12:04.770Z,19.70
2022-11-12T16:14:50.571Z,19.70
2022-11-12T16:17:36.059Z,19.70
2022-11-12T16:20:25.802Z,19.60
2022-11-12T16:23:13.810Z,19.60
2022-11-12T16:26:00.089Z,19.60
2022-11-12T16:28:45.844Z,19.60
2022-11-12T16:31:31.855Z,19.60
2022-11-12T16:34:22.289Z,19.60
2022-11-12T16:37:11.835Z,19.70
2022-11-12T16:39:58.295Z,19.70
2022-11-12T16:42:47.338Z,19.70
2022-11-12T16:45:38.743Z,19.70
2022-11-12T16:48:24.954Z,19.70
2022-11-12T16:51:15.361Z,19.70
2022-11-12T16:54:01.200Z,19.70
2022-11-12T16:56:46.903Z,19.70
2022-11-12T16:59:32.788Z,19.70
2022-11-12T17:02:18.661Z,19.70
2022-11-12T17:05:04.551Z,19.80
2022-11-12T17:07:50.662Z,19.80
2022-11-12T17:10:36.229Z,19.90
2022-11-12T17:13:21.895Z,20.00
2022-11-12T17:16:07.723Z,20.20
2022-11-12T17:18:54.416Z,20.30
2022-11-12T17:21:40.193Z,20.50
2022-11-12T17:24:29.220Z,20.70
2022-11-12T17:27:15.076Z,20.80
2022-11-12T17:30:00.654Z,20.80
2022-11-12T17:32:46.111Z,20.90
2022-11-12T17:35:33.101Z,20.90
2022-11-12T17:38:18.642Z,20.90
2022-11-12T17:41:04.966Z,20.90
2022-11-12T17:44:00.056Z,20.90
2022-11-12T17:46:46.961Z,20.90
2022-11-12T17:49:32.604Z,20.80
2022-11-12T17:52:17.933Z,20.80
2022-11-12T17:55:03.448Z,20.80
2022-11-12T17:57:49.287Z,20.80
2022-11-12T18:00:35.739Z,20.80
2022-11-12T18:03:21.624Z,20.80
2022-11-12T18:06:12.176Z,20.70
2022-11-12T18:08:59.613Z,20.70
2022-11-12T18:11:46.700Z,20.60
2022-11-12T18:14:32.623Z,20.60
2022-11-12T18:17:17.856Z,20.70
2022-11-12T18:20:03.790Z,20.70
2022-11-12T18:22:49.613Z,20.60
2022-11-12T18:25:35.520Z,20.60
2022-11-12T18:28:21.554Z,20.40
2022-11-12T18:31:07.503Z,20.30
2022-11-12T18:33:53.810Z,20.20
2022-11-12T18:36:39.522Z,20.20
2022-11-12T18:39:26.444Z,20.20
2022-11-12T18:42:11.931Z,20.20
2022-11-12T18:44:57.605Z,20.20
2022-11-12T18:47:42.988Z,20.10
2022-11-12T18:50:28.503Z,20.10
2022-11-12T18:53:14.005Z,20.10
2022-11-12T18:56:03.165Z,20.00
2022-11-12T18:58:48.988Z,20.00
2022-11-12T19:01:34.907Z,20.00
2022-11-12T19:04:20.928Z,19.90
2022-11-12T19:07:06.605Z,19.90
2022-11-12T19:09:52.669Z,19.90
2022-11-12T19:12:38.917Z,19.90
2022-11-12T19:15:26.968Z,19.90
2022-11-12T19:18:13.997Z,19.90
2022-11-12T19:21:09.888Z,19.90
2022-11-12T19:23:55.748Z,20.00
2022-11-12T19:26:41.666Z,20.00
2022-11-12T19:29:27.670Z,20.10
2022-11-12T19:32:13.525Z,20.20
2022-11-12T19:34:59.120Z,20.20
2022-11-12T19:37:44.630Z,20.40
2022-11-12T19:40:30.556Z,20.50
2022-11-12T19:43:16.788Z,20.50
2022-11-12T19:46:02.877Z,20.60
2022-11-12T19:48:48.943Z,20.60
2022-11-12T19:51:34.457Z,20.60
2022-11-12T19:54:20.133Z,20.50
2022-11-12T19:57:05.926Z,20.30
2022-11-12T19:59:51.683Z,20.30
2022-11-12T20:02:37.291Z,20.40
2022-11-12T20:05:22.884Z,20.40
2022-11-12T20:08:08.793Z,20.50
2022-11-12T20:10:54.231Z,20.50
2022-11-12T20:13:39.733Z,20.50
2022-11-12T20:16:25.916Z,20.50
2022-11-12T20:19:11.907Z,20.50
2022-11-12T20:21:57.383Z,20.40
2022-11-12T20:24:42.957Z,20.40
2022-11-12T20:27:28.501Z,20.40
2022-11-12T20:30:14.390Z,20.40
2022-11-12T20:32:59.881Z,20.30
2022-11-12T20:35:45.366Z,20.30
2022-11-12T20:38:31.310Z,20.30
2022-11-12T20:41:18.810Z,20.30
2022-11-12T20:44:04.603Z,20.30
2022-11-12T20:46:50.287Z,20.30
2022-11-12T20:49:35.730Z,20.30
2022-11-12T20:52:21.304Z,20.20
2022-11-12T20:55:06.899Z,20.20
2022-11-12T20:57:52.728Z,20.20
2022-11-12T21:00:38.926Z,20.20
2022-11-12T21:03:24.362Z,20.10
2022-11-12T21:06:11.526Z,20.10
2022-11-12T21:08:57.841Z,20.10
2022-11-12T21:11:43.394Z,20.10
2022-11-12T21:14:29.049Z,20.10
2022-11-12T21:17:14.473Z,20.00
2022-11-12T21:20:00.055Z,20.00
2022-11-12T21:22:45.872Z,19.90
2022-11-12T21:25:34.989Z,20.00
2022-11-12T21:28:21.106Z,20.00
2022-11-12T21:31:13.786Z,19.90
2022-11-12T21:34:00.521Z,19.80
2022-11-12T21:36:46.232Z,19.80
2022-11-12T21:39:31.736Z,19.70
2022-11-12T21:42:17.256Z,19.70
2022-11-12T21:45:02.754Z,19.60
2022-11-12T21:47:48.303Z,19.60
2022-11-12T21:50:33.720Z,19.50
2022-11-12T21:53:19.225Z,19.50
2022-11-12T21:56:05.781Z,19.50
2022-11-12T21:58:52.622Z,19.40
2022-11-12T22:01:40.454Z,19.40
2022-11-12T22:04:25.944Z,19.40
2022-11-12T22:07:11.486Z,19.40
2022-11-12T22:09:57.303Z,19.30
2022-11-12T22:13:05.002Z,19.30
2022-11-12T22:15:50.561Z,19.30
2022-11-12T22:18:36.217Z,19.30
2022-11-12T22:21:23.180Z,19.20
2022-11-12T22:24:10.312Z,19.20
2022-11-12T22:26:56.747Z,19.20
2022-11-12T22:29:43.807Z,19.20
2022-11-12T22:32:29.613Z,19.20
2022-11-12T22:35:15.208Z,19.20
2022-11-12T22:38:00.555Z,19.10
2022-11-12T22:40:45.847Z,19.10
2022-11-12T22:43:32.696Z,19.10
2022-11-12T22:46:22.831Z,19.10
2022-11-12T22:49:08.338Z,19.10
2022-11-12T22:51:54.017Z,19.10
2022-11-12T22:54:39.425Z,19.00
2022-11-12T22:57:24.831Z,19.00
2022-11-12T23:00:11.406Z,19.00
2022-11-12T23:02:56.859Z,18.90
2022-11-12T23:05:42.441Z,18.90
2022-11-12T23:08:28.435Z,18.90
2022-11-12T23:11:15.920Z,18.90
2022-11-12T23:14:01.601Z,18.90
2022-11-12T23:16:47.091Z,18.90
2022-11-12T23:19:32.486Z,18.80
2022-11-12T23:22:17.981Z,18.80
2022-11-12T23:25:03.490Z,18.80
2022-11-12T23:27:49.166Z,18.80
2022-11-12T23:30:35.108Z,18.80
2022-11-12T23:33:20.389Z,18.70
2022-11-12T23:36:09.648Z,18.80
2022-11-12T23:38:55.818Z,18.80
2022-11-12T23:41:41.282Z,18.70
2022-11-12T23:44:26.808Z,18.70
2022-11-12T23:47:12.395Z,18.70
2022-11-12T23:49:57.953Z,18.70
2022-11-12T23:52:43.433Z,18.60
2022-11-12T23:55:29.500Z,18.60
2022-11-12T23:58:15.444Z,18.60
